KOWB/OWB METAR and TAF weather

Enter ICAO airport designator
Station Type Date Time Source
KOWB METAR 2021/02/27 09:27 UTC NOAA

KOWB 270927Z AUTO 30004KT 6SM BR SCT003 OVC011 07/07 A2994 RMK AO2 RAE02 P0000


Station Type Date Time Source
KOWB Decoded METAR 2021/02/27 09:27 UTC NOAA

Owensboro, Owensboro-Daviess County Airport, KY, United States (KOWB) 37-44-24N 087-10-00W
Feb 27, 2021 - 04:27 AM EST / 2021.02.27 0927 UTC
Wind: from the WNW (300 degrees) at 5 MPH (4 KT):0
Visibility: 6 mile(s):0
Sky conditions: overcast
Weather: mist
Precipitation last hour: A trace
Temperature: 44 F (7 C)
Dew Point: 44 F (7 C)
Relative Humidity: 100%
Pressure (altimeter): 29.94 in. Hg (1013 hPa)
ob: KOWB 270927Z AUTO 30004KT 6SM BR SCT003 OVC011 07/07 A2994 RMK AO2 RAE02 P0000
cycle: 9

Station Type Date Time Source
KOWB TAF 2021/02/27 06:42 UTC NOAA

TAF KOWB 270540Z 2706/2806 16006KT 6SM BR VCSH OVC006
FM270700 21006KT 4SM -DZ BR VCSH OVC004
FM270900 26006KT 1SM BR OVC002
FM271100 28005KT 6SM BR OVC004
FM272000 16005KT P6SM BKN060
FM280000 13005KT P6SM RA OVC020

Example: see airport list